createdAt,value
2018-10-18T00:02:03.475Z,12.70
2018-10-18T00:04:33.503Z,12.60
2018-10-18T00:07:02.492Z,12.60
2018-10-18T00:09:31.590Z,12.70
2018-10-18T00:12:00.557Z,12.60
2018-10-18T00:14:29.585Z,12.50
2018-10-18T00:16:58.581Z,12.60
2018-10-18T00:19:27.556Z,12.60
2018-10-18T00:21:56.503Z,12.60
2018-10-18T00:24:25.507Z,12.50
2018-10-18T00:26:54.510Z,12.20
2018-10-18T00:29:23.626Z,12.40
2018-10-18T00:31:52.586Z,12.40
2018-10-18T00:34:21.566Z,12.50
2018-10-18T00:36:50.522Z,12.40
2018-10-18T00:39:19.507Z,12.40
2018-10-18T00:41:48.490Z,12.40
2018-10-18T00:44:17.532Z,12.30
2018-10-18T00:46:46.485Z,12.10
2018-10-18T00:49:15.460Z,12.00
2018-10-18T00:51:44.432Z,12.10
2018-10-18T00:54:13.465Z,12.30
2018-10-18T00:56:43.196Z,12.10
2018-10-18T00:59:12.215Z,11.90
2018-10-18T01:01:41.167Z,11.80
2018-10-18T01:04:10.156Z,11.70
2018-10-18T01:06:39.645Z,11.60
2018-10-18T01:09:10.947Z,11.60
2018-10-18T01:11:41.000Z,11.70
2018-10-18T01:14:11.032Z,11.70
2018-10-18T01:16:39.994Z,11.80
2018-10-18T01:19:09.041Z,11.70
2018-10-18T01:21:38.045Z,11.70
2018-10-18T01:24:07.041Z,11.80
2018-10-18T01:26:36.026Z,11.90
2018-10-18T01:29:05.165Z,12.10
2018-10-18T01:31:34.169Z,12.30
2018-10-18T01:34:03.153Z,12.20
2018-10-18T01:36:32.140Z,12.10
2018-10-18T01:39:01.145Z,11.80
2018-10-18T01:41:30.152Z,11.90
2018-10-18T01:43:59.115Z,11.90
2018-10-18T01:46:28.227Z,11.80
2018-10-18T01:48:57.265Z,11.70
2018-10-18T01:51:26.255Z,11.90
2018-10-18T01:53:55.250Z,11.80
2018-10-18T01:56:24.213Z,11.70
2018-10-18T01:58:53.317Z,11.70
2018-10-18T02:01:23.293Z,11.70
2018-10-18T02:03:52.369Z,11.70
2018-10-18T02:06:21.366Z,11.60
2018-10-18T02:08:50.341Z,11.50
2018-10-18T02:11:19.310Z,11.50
2018-10-18T02:13:48.941Z,11.60
2018-10-18T02:16:17.968Z,11.70
2018-10-18T02:18:47.033Z,11.60
2018-10-18T02:21:16.018Z,11.40
2018-10-18T02:23:45.033Z,11.40
2018-10-18T02:26:14.012Z,11.30
2018-10-18T02:28:43.075Z,11.50
2018-10-18T02:31:12.039Z,11.60
2018-10-18T02:33:41.043Z,11.70
2018-10-18T02:36:10.122Z,11.70
2018-10-18T02:38:39.068Z,11.60
2018-10-18T02:41:08.053Z,11.50
2018-10-18T02:43:37.032Z,11.60
2018-10-18T02:46:06.130Z,11.60
2018-10-18T02:48:35.120Z,11.70
2018-10-18T02:51:04.061Z,11.60
2018-10-18T02:53:33.338Z,11.60
2018-10-18T02:56:03.713Z,11.50
2018-10-18T02:58:32.720Z,11.50
2018-10-18T03:01:01.708Z,11.50
2018-10-18T03:03:30.684Z,11.50
2018-10-18T03:05:59.776Z,11.40
2018-10-18T03:08:28.763Z,11.50
2018-10-18T03:10:57.744Z,11.40
2018-10-18T03:13:26.964Z,11.40
2018-10-18T03:15:56.006Z,11.50
2018-10-18T03:18:25.970Z,11.50
2018-10-18T03:20:54.967Z,11.30
2018-10-18T03:23:23.947Z,11.40
2018-10-18T03:25:52.917Z,11.40
2018-10-18T03:28:21.906Z,11.40
2018-10-18T03:30:50.973Z,11.50
2018-10-18T03:33:19.959Z,11.40
2018-10-18T03:35:48.926Z,11.40
2018-10-18T03:38:17.975Z,11.40
2018-10-18T03:40:46.979Z,11.30
2018-10-18T03:43:15.992Z,11.40
2018-10-18T03:45:45.014Z,11.50
2018-10-18T03:48:14.066Z,11.30
2018-10-18T03:50:43.025Z,11.30
2018-10-18T03:53:11.988Z,11.50
2018-10-18T03:55:41.013Z,11.60
2018-10-18T03:58:10.010Z,11.80
2018-10-18T04:00:38.994Z,12.00
2018-10-18T04:03:07.960Z,12.00
2018-10-18T04:05:36.945Z,12.10
2018-10-18T04:08:06.200Z,12.30
2018-10-18T04:10:35.215Z,12.40
2018-10-18T04:13:04.311Z,12.40
2018-10-18T04:15:33.284Z,12.40
2018-10-18T04:18:02.465Z,12.50
2018-10-18T04:20:31.361Z,12.60
2018-10-18T04:23:00.362Z,12.70
2018-10-18T04:25:29.517Z,12.70
2018-10-18T04:27:58.446Z,12.70
2018-10-18T04:30:27.432Z,12.90
2018-10-18T04:32:56.413Z,12.90
2018-10-18T04:35:25.520Z,13.00
2018-10-18T04:37:54.491Z,12.90
2018-10-18T04:40:23.496Z,13.10
2018-10-18T04:42:52.477Z,13.10
2018-10-18T04:45:21.644Z,13.10
2018-10-18T04:47:50.921Z,13.00
2018-10-18T04:50:19.715Z,12.90
2018-10-18T04:52:48.698Z,12.90
2018-10-18T04:55:17.734Z,12.90
2018-10-18T04:57:46.741Z,12.90
2018-10-18T05:00:15.748Z,13.00
2018-10-18T05:02:44.871Z,13.00
2018-10-18T05:05:25.202Z,12.90
2018-10-18T05:07:54.287Z,12.90
2018-10-18T05:10:23.303Z,12.90
2018-10-18T05:12:52.349Z,12.90
2018-10-18T05:15:21.463Z,12.90
2018-10-18T05:17:50.500Z,12.90
2018-10-18T05:20:19.496Z,12.90
2018-10-18T05:22:48.500Z,12.90
2018-10-18T05:25:17.740Z,12.90
2018-10-18T05:27:46.737Z,13.00
2018-10-18T05:30:15.789Z,13.00
2018-10-18T05:32:44.903Z,13.00
2018-10-18T05:35:14.000Z,13.00
2018-10-18T05:37:43.083Z,13.00
2018-10-18T05:40:12.076Z,13.00
2018-10-18T05:42:41.149Z,13.00
2018-10-18T05:45:10.288Z,13.00
2018-10-18T05:47:40.459Z,12.90
2018-10-18T05:50:10.192Z,13.00
2018-10-18T05:52:39.351Z,13.00
2018-10-18T05:55:09.948Z,13.00
2018-10-18T05:57:39.236Z,13.10
2018-10-18T06:00:12.538Z,13.10
2018-10-18T06:02:41.877Z,13.10
2018-10-18T06:05:12.272Z,13.10
2018-10-18T06:07:41.558Z,13.10
2018-10-18T06:10:22.814Z,13.10
2018-10-18T06:12:52.226Z,13.20
2018-10-18T06:15:26.618Z,13.10
2018-10-18T06:17:55.646Z,13.10
2018-10-18T06:20:24.654Z,13.10
2018-10-18T06:22:53.742Z,13.20
2018-10-18T06:25:22.654Z,13.20
2018-10-18T06:27:51.649Z,13.20
2018-10-18T06:30:20.584Z,13.20
2018-10-18T06:32:49.682Z,13.20
2018-10-18T06:35:19.642Z,13.20
2018-10-18T06:37:48.636Z,13.20
2018-10-18T06:40:18.280Z,13.20
2018-10-18T06:42:47.273Z,13.20
2018-10-18T06:45:17.602Z,13.30
2018-10-18T06:47:46.979Z,13.30
2018-10-18T06:50:17.115Z,13.30
2018-10-18T06:52:46.086Z,13.30
2018-10-18T06:55:15.777Z,13.30
2018-10-18T06:57:45.106Z,13.40
2018-10-18T07:00:22.163Z,13.40
2018-10-18T07:02:51.330Z,13.40
2018-10-18T07:05:20.641Z,13.40
2018-10-18T07:07:49.631Z,13.40
2018-10-18T07:10:18.996Z,13.40
2018-10-18T07:12:47.980Z,13.40
2018-10-18T07:15:17.161Z,13.30
2018-10-18T07:17:46.173Z,13.40
2018-10-18T07:20:15.706Z,13.40
2018-10-18T07:22:44.674Z,13.40
2018-10-18T07:25:15.019Z,13.50
2018-10-18T07:27:44.192Z,13.50
2018-10-18T07:30:14.757Z,13.50
2018-10-18T07:32:43.749Z,13.50
2018-10-18T07:35:13.816Z,13.70
2018-10-18T07:37:42.790Z,13.80
2018-10-18T07:40:13.918Z,13.80
2018-10-18T07:42:42.937Z,13.80
2018-10-18T07:45:12.905Z,13.80
2018-10-18T07:47:42.720Z,13.80
2018-10-18T07:50:12.154Z,13.90
2018-10-18T07:52:41.178Z,13.90
2018-10-18T07:55:10.862Z,13.90
2018-10-18T07:57:39.872Z,13.90
2018-10-18T08:00:11.157Z,14.00
2018-10-18T08:02:40.353Z,13.90
2018-10-18T08:05:10.012Z,14.00
2018-10-18T08:07:39.266Z,14.00
2018-10-18T08:10:10.469Z,14.00
2018-10-18T08:12:39.815Z,14.10
2018-10-18T08:15:09.845Z,14.10
2018-10-18T08:17:39.150Z,14.10
2018-10-18T08:20:08.903Z,14.20
2018-10-18T08:22:38.368Z,14.20
2018-10-18T08:25:07.472Z,14.20
2018-10-18T08:27:36.881Z,14.10
2018-10-18T08:30:07.893Z,14.20
2018-10-18T08:32:36.969Z,14.10
2018-10-18T08:35:06.982Z,14.20
2018-10-18T08:37:36.115Z,14.20
2018-10-18T08:40:05.840Z,14.20
2018-10-18T08:42:34.939Z,14.20
2018-10-18T08:45:04.009Z,14.30
2018-10-18T08:47:33.078Z,14.30
2018-10-18T08:50:02.338Z,14.50
2018-10-18T08:52:31.259Z,14.40
2018-10-18T08:55:00.281Z,14.40
2018-10-18T08:57:29.419Z,14.30
2018-10-18T08:59:58.445Z,14.20
2018-10-18T09:02:27.436Z,14.30
2018-10-18T09:04:56.427Z,14.40
2018-10-18T09:07:25.486Z,14.50
2018-10-18T09:09:54.502Z,14.50
2018-10-18T09:12:23.505Z,14.50
2018-10-18T09:14:52.512Z,14.60
2018-10-18T09:17:21.623Z,14.70
2018-10-18T09:19:50.590Z,14.80
2018-10-18T09:22:19.622Z,14.70
2018-10-18T09:24:48.640Z,14.70
2018-10-18T09:27:17.632Z,14.80
2018-10-18T09:29:46.624Z,14.90
2018-10-18T09:32:15.632Z,15.00
2018-10-18T09:34:44.611Z,15.00
2018-10-18T09:37:13.712Z,14.90
2018-10-18T09:39:43.111Z,14.90
2018-10-18T09:42:12.088Z,14.80
2018-10-18T09:44:41.107Z,14.80
2018-10-18T09:47:10.153Z,14.80
2018-10-18T09:49:39.146Z,14.90
2018-10-18T09:52:08.164Z,15.20
2018-10-18T09:54:37.161Z,15.40
2018-10-18T09:57:06.211Z,15.60
2018-10-18T09:59:35.226Z,15.70
2018-10-18T10:02:09.500Z,15.90
2018-10-18T10:04:38.823Z,16.00
2018-10-18T10:07:08.094Z,16.30
2018-10-18T10:09:37.974Z,16.40
2018-10-18T10:12:06.967Z,16.40
2018-10-18T10:14:35.959Z,16.40
2018-10-18T10:17:05.634Z,16.40
2018-10-18T10:19:34.696Z,16.40
2018-10-18T10:22:03.685Z,16.40
2018-10-18T10:24:32.667Z,16.40
2018-10-18T10:27:01.657Z,16.20
2018-10-18T10:29:30.668Z,16.20
2018-10-18T10:31:59.681Z,16.20
2018-10-18T10:34:28.668Z,16.10
2018-10-18T10:36:57.658Z,16.00
2018-10-18T10:39:26.679Z,16.00
2018-10-18T10:41:55.711Z,16.10
2018-10-18T10:44:24.779Z,16.30
2018-10-18T10:46:53.776Z,16.40
2018-10-18T10:49:22.792Z,16.50
2018-10-18T10:51:51.762Z,16.40
2018-10-18T10:54:20.776Z,16.50
2018-10-18T10:56:49.769Z,16.60
2018-10-18T10:59:19.889Z,16.70
2018-10-18T11:01:48.863Z,16.60
2018-10-18T11:04:17.943Z,16.40
2018-10-18T11:06:46.926Z,16.40
2018-10-18T11:09:16.019Z,16.40
2018-10-18T11:11:44.976Z,16.60
2018-10-18T11:14:14.016Z,16.80
2018-10-18T11:16:42.936Z,16.90
2018-10-18T11:19:11.982Z,16.80
2018-10-18T11:21:41.078Z,16.70
2018-10-18T11:24:10.088Z,16.60
2018-10-18T11:26:39.115Z,16.60
2018-10-18T11:29:08.128Z,16.60
2018-10-18T11:31:37.180Z,16.60
2018-10-18T11:34:06.266Z,16.60
2018-10-18T11:36:35.287Z,16.50
2018-10-18T11:39:05.785Z,16.40
2018-10-18T11:41:34.816Z,16.50
2018-10-18T11:44:03.854Z,16.60
2018-10-18T11:46:32.857Z,16.70
2018-10-18T11:49:01.886Z,16.60
2018-10-18T11:51:30.887Z,16.60
2018-10-18T11:53:59.871Z,16.50
2018-10-18T11:56:29.046Z,16.60
2018-10-18T11:58:58.210Z,16.80
2018-10-18T12:01:27.338Z,16.80
2018-10-18T12:03:56.292Z,16.60
2018-10-18T12:06:25.260Z,16.70
2018-10-18T12:08:54.235Z,16.90
2018-10-18T12:11:23.225Z,17.00
2018-10-18T12:13:52.203Z,16.90
2018-10-18T12:16:21.175Z,16.90
2018-10-18T12:18:50.205Z,16.90
2018-10-18T12:21:19.204Z,16.80
2018-10-18T12:23:48.166Z,16.80
2018-10-18T12:26:17.331Z,16.80
2018-10-18T12:28:46.253Z,16.70
2018-10-18T12:31:15.268Z,16.50
2018-10-18T12:33:44.302Z,16.20
2018-10-18T12:36:13.275Z,16.20
2018-10-18T12:38:42.239Z,16.30
2018-10-18T12:41:11.413Z,16.30
2018-10-18T12:43:40.350Z,16.30
2018-10-18T12:46:09.359Z,16.30
2018-10-18T12:48:38.439Z,16.30
2018-10-18T12:51:07.384Z,16.30
2018-10-18T12:53:36.376Z,16.30
2018-10-18T12:56:05.694Z,16.40
2018-10-18T12:58:34.681Z,16.50
2018-10-18T13:01:03.711Z,16.50
2018-10-18T13:03:32.658Z,16.40
2018-10-18T13:06:01.670Z,16.50
2018-10-18T13:08:30.645Z,16.40
2018-10-18T13:10:59.644Z,16.40
2018-10-18T13:13:28.593Z,16.30
2018-10-18T13:15:57.589Z,16.30
2018-10-18T13:18:26.589Z,16.30
2018-10-18T13:20:56.503Z,16.30
2018-10-18T13:23:25.496Z,16.30
2018-10-18T13:25:54.531Z,16.30
2018-10-18T13:28:23.511Z,16.40
2018-10-18T13:30:52.498Z,16.50
2018-10-18T13:33:21.503Z,16.40
2018-10-18T13:35:50.508Z,16.40
2018-10-18T13:38:23.879Z,16.40
2018-10-18T13:40:53.131Z,16.40
2018-10-18T13:43:24.520Z,16.20
2018-10-18T13:45:53.444Z,16.10
2018-10-18T13:48:22.421Z,16.10
2018-10-18T13:50:51.519Z,16.20
2018-10-18T13:53:20.591Z,16.20
2018-10-18T13:55:49.655Z,16.10
2018-10-18T13:58:18.636Z,16.10
2018-10-18T14:00:47.589Z,16.10
2018-10-18T14:03:16.657Z,16.10
2018-10-18T14:05:45.702Z,16.10
2018-10-18T14:08:14.623Z,16.00
2018-10-18T14:10:43.558Z,16.00
2018-10-18T14:13:12.548Z,16.10
2018-10-18T14:15:41.520Z,16.00
2018-10-18T14:18:10.503Z,16.00
2018-10-18T14:20:39.430Z,16.00
2018-10-18T14:23:08.531Z,16.00
2018-10-18T14:25:37.394Z,16.00
2018-10-18T14:28:07.691Z,16.00
2018-10-18T14:30:36.646Z,16.10
2018-10-18T14:33:05.654Z,16.00
2018-10-18T14:35:34.601Z,16.00
2018-10-18T14:38:03.575Z,15.90
2018-10-18T14:40:32.508Z,15.90
2018-10-18T14:43:01.562Z,15.90
2018-10-18T14:45:30.499Z,15.80
2018-10-18T14:47:59.513Z,15.90
2018-10-18T14:50:28.579Z,15.90
2018-10-18T14:52:57.513Z,16.00
2018-10-18T14:55:26.464Z,16.00
2018-10-18T14:57:55.538Z,15.90
2018-10-18T15:00:24.641Z,16.00
2018-10-18T15:02:53.621Z,16.00
2018-10-18T15:05:22.631Z,16.00
2018-10-18T15:07:51.582Z,16.00
2018-10-18T15:10:20.527Z,16.00
2018-10-18T15:12:49.585Z,16.00
2018-10-18T15:15:18.492Z,15.90
2018-10-18T15:17:47.547Z,16.00
2018-10-18T15:20:16.569Z,16.00
2018-10-18T15:22:45.479Z,15.90
2018-10-18T15:25:14.578Z,15.80
2018-10-18T15:27:43.768Z,15.80
2018-10-18T15:30:13.273Z,15.80
2018-10-18T15:32:42.244Z,15.80
2018-10-18T15:35:12.453Z,15.80
2018-10-18T15:37:41.869Z,15.90
2018-10-18T15:40:10.995Z,15.90
2018-10-18T15:42:39.963Z,15.90
2018-10-18T15:45:09.798Z,15.80
2018-10-18T15:47:38.919Z,15.80
2018-10-18T15:50:09.222Z,15.80
2018-10-18T15:52:38.240Z,15.80
2018-10-18T15:55:07.616Z,15.80
2018-10-18T15:57:36.621Z,15.80
2018-10-18T16:00:08.742Z,15.80
2018-10-18T16:02:37.742Z,15.70
2018-10-18T16:05:06.820Z,15.80
2018-10-18T16:07:35.782Z,15.70
2018-10-18T16:10:05.522Z,15.70
2018-10-18T16:12:34.536Z,15.60
2018-10-18T16:15:03.547Z,15.60
2018-10-18T16:17:32.581Z,15.60
2018-10-18T16:20:01.713Z,15.60
2018-10-18T16:22:30.667Z,15.60
2018-10-18T16:24:59.674Z,15.70
2018-10-18T16:27:28.664Z,15.70
2018-10-18T16:29:57.697Z,15.60
2018-10-18T16:32:26.701Z,15.70
2018-10-18T16:34:55.777Z,15.80
2018-10-18T16:37:24.724Z,15.80
2018-10-18T16:39:53.713Z,15.80
2018-10-18T16:42:23.573Z,15.70
2018-10-18T16:44:54.463Z,15.70
2018-10-18T16:47:23.470Z,15.70
2018-10-18T16:49:52.507Z,15.70
2018-10-18T16:52:23.101Z,15.60
2018-10-18T16:54:52.183Z,15.70
2018-10-18T16:57:21.656Z,15.70
2018-10-18T16:59:50.662Z,15.80
2018-10-18T17:02:19.749Z,15.80
2018-10-18T17:04:48.821Z,15.80
2018-10-18T17:07:17.826Z,15.80
2018-10-18T17:09:46.814Z,15.80
2018-10-18T17:12:16.323Z,16.00
2018-10-18T17:14:45.249Z,15.90
2018-10-18T17:17:14.307Z,15.80
2018-10-18T17:19:43.303Z,16.00
2018-10-18T17:22:12.389Z,16.00
2018-10-18T17:24:42.768Z,15.80
2018-10-18T17:27:11.899Z,15.80
2018-10-18T17:29:40.782Z,15.90
2018-10-18T17:32:09.992Z,15.90
2018-10-18T17:34:39.067Z,15.90
2018-10-18T17:37:08.089Z,15.80
2018-10-18T17:39:37.106Z,15.80
2018-10-18T17:42:07.193Z,15.80
2018-10-18T17:44:36.305Z,15.90
2018-10-18T17:47:05.524Z,15.90
2018-10-18T17:49:34.512Z,15.80
2018-10-18T17:52:03.574Z,15.80
2018-10-18T17:54:32.653Z,15.70
2018-10-18T17:57:01.694Z,15.70
2018-10-18T17:59:30.717Z,15.70
2018-10-18T18:01:59.791Z,15.80
2018-10-18T18:04:28.783Z,15.80
2018-10-18T18:06:57.919Z,15.80
2018-10-18T18:09:26.895Z,15.80
2018-10-18T18:11:55.966Z,15.60
2018-10-18T18:14:25.021Z,15.60
2018-10-18T18:16:55.097Z,15.60
2018-10-18T18:19:24.125Z,15.50
2018-10-18T18:21:53.229Z,15.60
2018-10-18T18:24:22.173Z,15.70
2018-10-18T18:26:51.207Z,15.80
2018-10-18T18:29:20.227Z,15.70
2018-10-18T18:31:49.241Z,15.70
2018-10-18T18:34:18.670Z,15.80
2018-10-18T18:36:47.754Z,15.80
2018-10-18T18:39:16.809Z,15.70
2018-10-18T18:41:46.367Z,15.70
2018-10-18T18:44:15.413Z,15.50
2018-10-18T18:46:44.521Z,15.60
2018-10-18T18:49:13.503Z,15.50
2018-10-18T18:51:42.509Z,15.50
2018-10-18T18:54:11.538Z,15.50
2018-10-18T18:56:40.561Z,15.40
2018-10-18T18:59:09.600Z,15.30
2018-10-18T19:01:38.641Z,15.40
2018-10-18T19:04:07.707Z,15.40
2018-10-18T19:06:36.711Z,15.40
2018-10-18T19:09:07.294Z,15.40
2018-10-18T19:11:36.269Z,15.40
2018-10-18T19:14:05.532Z,15.40
2018-10-18T19:16:34.500Z,15.40
2018-10-18T19:19:04.017Z,15.40
2018-10-18T19:21:33.021Z,15.40
2018-10-18T19:24:02.068Z,15.30
2018-10-18T19:26:31.079Z,15.30
2018-10-18T19:29:00.102Z,15.20
2018-10-18T19:31:29.172Z,15.40
2018-10-18T19:33:58.220Z,15.30
2018-10-18T19:36:39.416Z,15.20
2018-10-18T19:39:08.887Z,15.30
2018-10-18T19:41:38.000Z,15.20
2018-10-18T19:44:12.721Z,15.20
2018-10-18T19:46:59.095Z,15.30
2018-10-18T19:49:28.790Z,15.20
2018-10-18T19:51:57.863Z,15.20
2018-10-18T19:54:27.358Z,15.10
2018-10-18T19:56:56.365Z,15.20
2018-10-18T19:59:25.531Z,15.20
2018-10-18T20:01:54.573Z,15.10
2018-10-18T20:04:23.601Z,15.10
2018-10-18T20:06:53.907Z,15.10
2018-10-18T20:09:23.276Z,15.20
2018-10-18T20:11:52.707Z,15.10
2018-10-18T20:14:21.725Z,15.20
2018-10-18T20:16:50.742Z,15.20
2018-10-18T20:19:19.840Z,15.20
2018-10-18T20:21:48.852Z,15.10
2018-10-18T20:24:17.959Z,15.00
2018-10-18T20:26:47.042Z,15.00
2018-10-18T20:29:16.033Z,15.10
2018-10-18T20:31:45.129Z,15.10
2018-10-18T20:34:14.240Z,15.10
2018-10-18T20:36:43.273Z,15.20
2018-10-18T20:39:12.478Z,15.30
2018-10-18T20:41:43.671Z,15.10
2018-10-18T20:44:12.841Z,15.10
2018-10-18T20:46:41.941Z,15.20
2018-10-18T20:49:10.951Z,15.20
2018-10-18T20:51:39.961Z,15.30
2018-10-18T20:54:09.067Z,15.20
2018-10-18T20:56:37.989Z,15.10
2018-10-18T20:59:07.018Z,15.00
2018-10-18T21:01:35.979Z,15.00
2018-10-18T21:04:05.221Z,15.00
2018-10-18T21:06:34.321Z,15.10
2018-10-18T21:09:04.777Z,15.00
2018-10-18T21:11:33.771Z,14.80
2018-10-18T21:14:02.814Z,14.80
2018-10-18T21:16:31.826Z,14.80
2018-10-18T21:19:01.853Z,14.70
2018-10-18T21:21:30.923Z,14.60
2018-10-18T21:23:59.928Z,14.60
2018-10-18T21:26:28.928Z,14.60
2018-10-18T21:28:57.917Z,14.50
2018-10-18T21:31:26.931Z,14.50
2018-10-18T21:33:56.016Z,14.40
2018-10-18T21:36:25.054Z,14.40
2018-10-18T21:38:54.148Z,14.50
2018-10-18T21:41:23.153Z,14.20
2018-10-18T21:43:52.153Z,14.10
2018-10-18T21:46:21.493Z,14.40
2018-10-18T21:48:50.551Z,14.50
2018-10-18T21:51:19.585Z,14.60
2018-10-18T21:53:48.608Z,14.40
2018-10-18T21:56:17.726Z,14.10
2018-10-18T21:58:46.771Z,14.00
2018-10-18T22:01:15.805Z,14.30
2018-10-18T22:03:44.821Z,14.20
2018-10-18T22:06:13.849Z,13.80
2018-10-18T22:08:43.486Z,13.90
2018-10-18T22:11:12.588Z,14.10
2018-10-18T22:13:41.511Z,14.20
2018-10-18T22:16:10.577Z,14.20
2018-10-18T22:18:39.608Z,14.10
2018-10-18T22:21:08.694Z,14.10
2018-10-18T22:23:37.662Z,14.40
2018-10-18T22:26:06.754Z,14.20
2018-10-18T22:28:35.753Z,14.20
2018-10-18T22:31:05.423Z,14.10
2018-10-18T22:33:34.436Z,14.20
2018-10-18T22:36:03.457Z,14.30
2018-10-18T22:38:32.535Z,14.20
2018-10-18T22:41:01.583Z,14.30
2018-10-18T22:43:30.591Z,14.20
2018-10-18T22:46:00.034Z,14.50
2018-10-18T22:48:30.441Z,14.40
2018-10-18T22:51:00.083Z,14.40
2018-10-18T22:53:29.458Z,14.30
2018-10-18T22:55:58.469Z,14.50
2018-10-18T22:58:27.474Z,14.50
2018-10-18T23:00:56.498Z,14.40
2018-10-18T23:03:25.511Z,14.40
2018-10-18T23:05:54.520Z,14.20
2018-10-18T23:08:23.559Z,14.30
2018-10-18T23:10:52.572Z,14.30
2018-10-18T23:13:21.575Z,14.10
2018-10-18T23:15:50.588Z,14.20
2018-10-18T23:18:19.623Z,14.20
2018-10-18T23:20:48.636Z,14.20
2018-10-18T23:23:17.646Z,14.10
2018-10-18T23:25:46.656Z,14.10
2018-10-18T23:28:16.228Z,14.10
2018-10-18T23:30:45.320Z,14.20
2018-10-18T23:33:14.383Z,14.20
2018-10-18T23:35:43.332Z,14.10
2018-10-18T23:38:12.370Z,14.10
2018-10-18T23:40:41.829Z,14.10
2018-10-18T23:43:10.888Z,14.10
2018-10-18T23:45:39.960Z,14.20
2018-10-18T23:48:08.991Z,14.20
2018-10-18T23:50:38.056Z,14.30
2018-10-18T23:53:07.128Z,14.20
2018-10-18T23:55:36.109Z,14.10
2018-10-18T23:58:05.367Z,14.00
